createdAt,value
2022-10-25T00:00:47.915Z,1.10
2022-10-25T00:01:50.413Z,2.90
2022-10-25T00:02:52.767Z,4.68
2022-10-25T00:03:55.669Z,0.68
2022-10-25T00:04:58.140Z,0.95
2022-10-25T00:06:00.434Z,1.17
2022-10-25T00:07:02.691Z,1.90
2022-10-25T00:08:05.156Z,1.13
2022-10-25T00:09:08.016Z,5.30
2022-10-25T00:10:10.667Z,3.92
2022-10-25T00:11:24.850Z,3.28
2022-10-25T00:12:27.214Z,1.42
2022-10-25T00:13:29.522Z,1.05
2022-10-25T00:14:32.219Z,0.85
2022-10-25T00:15:34.555Z,1.00
2022-10-25T00:16:38.085Z,3.33
2022-10-25T00:17:41.444Z,1.10
2022-10-25T00:18:43.782Z,1.50
2022-10-25T00:19:46.368Z,1.10
2022-10-25T00:20:48.795Z,0.98
2022-10-25T00:21:51.197Z,4.95
2022-10-25T00:22:53.522Z,1.25
2022-10-25T00:23:56.185Z,1.67
2022-10-25T00:24:58.490Z,1.02
2022-10-25T00:26:10.856Z,0.95
2022-10-25T00:27:13.175Z,4.07
2022-10-25T00:28:15.501Z,2.53
2022-10-25T00:29:18.486Z,2.30
2022-10-25T00:30:20.784Z,1.35
2022-10-25T00:31:24.026Z,0.98
2022-10-25T00:32:26.863Z,3.38
2022-10-25T00:33:33.333Z,2.25
2022-10-25T00:34:35.601Z,1.88
2022-10-25T00:35:37.978Z,1.42
2022-10-25T00:36:40.305Z,1.55
2022-10-25T00:37:42.621Z,1.42
2022-10-25T00:38:46.136Z,1.50
2022-10-25T00:39:48.496Z,0.70
2022-10-25T00:40:50.825Z,1.00
2022-10-25T00:41:53.124Z,0.60
2022-10-25T00:42:55.445Z,0.55
2022-10-25T00:44:35.880Z,3.22
2022-10-25T00:45:38.250Z,2.45
2022-10-25T00:46:40.787Z,1.17
2022-10-25T00:47:51.984Z,1.73
2022-10-25T00:49:04.775Z,3.45
2022-10-25T00:50:25.374Z,1.58
2022-10-25T00:51:34.598Z,0.60
2022-10-25T00:52:40.886Z,1.65
2022-10-25T00:53:43.495Z,1.73
2022-10-25T00:54:50.352Z,1.75
2022-10-25T00:55:59.470Z,1.38
2022-10-25T00:57:09.243Z,0.65
2022-10-25T00:58:16.171Z,4.63
2022-10-25T00:59:25.331Z,2.20
2022-10-25T01:00:27.740Z,0.70
2022-10-25T01:01:30.458Z,0.85
2022-10-25T01:02:33.674Z,1.58
2022-10-25T01:03:38.786Z,0.68
2022-10-25T01:04:41.445Z,3.72
2022-10-25T01:05:44.838Z,1.75
2022-10-25T01:06:50.230Z,1.40
2022-10-25T01:07:52.709Z,1.08
2022-10-25T01:08:56.239Z,1.52
2022-10-25T01:09:58.640Z,1.52
2022-10-25T01:11:00.993Z,2.42
2022-10-25T01:12:03.513Z,1.30
2022-10-25T01:13:06.431Z,2.47
2022-10-25T01:14:12.115Z,1.00
2022-10-25T01:15:14.743Z,1.48
2022-10-25T01:16:25.999Z,1.23
2022-10-25T01:17:48.388Z,1.05
2022-10-25T01:19:09.408Z,1.05
2022-10-25T01:20:52.792Z,0.85
2022-10-25T01:22:29.750Z,3.90
2022-10-25T01:23:50.840Z,2.47
2022-10-25T01:25:24.727Z,0.80
2022-10-25T01:26:52.709Z,6.50
2022-10-25T01:28:17.725Z,0.77
2022-10-25T01:29:55.514Z,1.67
2022-10-25T01:31:24.824Z,0.80
2022-10-25T01:32:40.886Z,1.10
2022-10-25T01:34:00.021Z,0.95
2022-10-25T01:35:11.076Z,0.65
2022-10-25T01:36:32.291Z,1.17
2022-10-25T01:38:02.179Z,5.28
2022-10-25T01:39:26.367Z,1.52
2022-10-25T01:41:01.491Z,2.28
2022-10-25T01:42:32.934Z,4.28
2022-10-25T01:43:42.303Z,179.52
2022-10-25T01:45:07.921Z,49.60
2022-10-25T01:46:29.004Z,146.88
2022-10-25T01:47:47.037Z,117.68
2022-10-25T01:48:57.614Z,75.00
2022-10-25T01:50:11.361Z,43.10
2022-10-25T01:51:17.090Z,29.98
2022-10-25T01:52:22.142Z,28.65
2022-10-25T01:53:24.472Z,30.23
2022-10-25T01:54:27.107Z,17.80
2022-10-25T01:55:39.357Z,18.70
2022-10-25T01:56:52.822Z,13.30
2022-10-25T01:58:21.121Z,12.95
2022-10-25T01:59:45.353Z,12.25
2022-10-25T02:00:56.364Z,10.77
2022-10-25T02:02:04.739Z,5.88
2022-10-25T02:03:15.966Z,11.75
2022-10-25T02:04:23.639Z,14.05
2022-10-25T02:06:09.070Z,9.90
2022-10-25T02:07:24.646Z,7.20
2022-10-25T02:08:48.793Z,9.10
2022-10-25T02:10:07.997Z,6.38
2022-10-25T02:11:31.255Z,9.63
2022-10-25T02:12:57.002Z,7.65
2022-10-25T02:14:22.017Z,19.33
2022-10-25T02:15:58.375Z,59.63
2022-10-25T02:17:10.899Z,72.63
2022-10-25T02:18:17.446Z,50.20
2022-10-25T02:19:26.296Z,43.05
2022-10-25T02:20:33.208Z,21.45
2022-10-25T02:21:37.214Z,44.45
2022-10-25T02:22:39.937Z,27.38
2022-10-25T02:23:42.927Z,19.17
2022-10-25T02:24:46.969Z,18.27
2022-10-25T02:25:50.960Z,17.70
2022-10-25T02:26:54.497Z,13.15
2022-10-25T02:28:01.576Z,15.05
2022-10-25T02:29:06.886Z,10.93
2022-10-25T02:30:09.747Z,10.10
2022-10-25T02:31:17.008Z,8.85
2022-10-25T02:32:20.055Z,10.20
2022-10-25T02:33:22.555Z,10.00
2022-10-25T02:34:25.373Z,8.40
2022-10-25T02:35:27.827Z,6.38
2022-10-25T02:36:30.744Z,10.45
2022-10-25T02:37:33.138Z,6.75
2022-10-25T02:38:35.917Z,8.82
2022-10-25T02:39:38.937Z,8.27
2022-10-25T02:40:41.459Z,5.07
2022-10-25T02:41:44.020Z,5.15
2022-10-25T02:42:47.537Z,7.30
2022-10-25T02:43:50.148Z,4.50
2022-10-25T02:44:55.916Z,9.43
2022-10-25T02:45:59.031Z,6.20
2022-10-25T02:47:02.464Z,5.93
2022-10-25T02:48:05.101Z,5.63
2022-10-25T02:49:07.684Z,6.45
2022-10-25T02:50:11.795Z,13.07
2022-10-25T02:51:15.369Z,4.65
2022-10-25T02:52:19.631Z,4.10
2022-10-25T02:53:22.621Z,5.38
2022-10-25T02:54:27.891Z,6.35
2022-10-25T02:55:32.078Z,4.43
2022-10-25T02:56:34.627Z,5.13
2022-10-25T02:57:38.263Z,4.75
2022-10-25T02:58:42.128Z,3.65
2022-10-25T02:59:44.505Z,3.45
2022-10-25T03:00:48.104Z,3.97
2022-10-25T03:01:50.493Z,5.35
2022-10-25T03:02:52.968Z,9.70
2022-10-25T03:03:55.349Z,3.90
2022-10-25T03:04:57.791Z,6.50
2022-10-25T03:06:00.500Z,2.25
2022-10-25T03:07:03.036Z,4.50
2022-10-25T03:08:05.359Z,2.33
2022-10-25T03:09:07.665Z,2.67
2022-10-25T03:10:10.124Z,2.55
2022-10-25T03:11:13.377Z,2.75
2022-10-25T03:12:15.700Z,8.93
2022-10-25T03:13:18.090Z,4.75
2022-10-25T03:14:20.553Z,3.80
2022-10-25T03:15:31.470Z,14.27
2022-10-25T03:16:35.112Z,13.43
2022-10-25T03:17:39.883Z,37.38
2022-10-25T03:18:42.808Z,23.85
2022-10-25T03:19:45.271Z,19.60
2022-10-25T03:20:48.046Z,35.95
2022-10-25T03:21:50.423Z,25.65
2022-10-25T03:22:53.723Z,20.08
2022-10-25T03:24:03.390Z,11.80
2022-10-25T03:25:06.467Z,16.10
2022-10-25T03:26:08.792Z,57.85
2022-10-25T03:27:11.424Z,37.08
2022-10-25T03:28:14.464Z,24.77
2022-10-25T03:29:16.991Z,15.32
2022-10-25T03:30:20.304Z,12.18
2022-10-25T03:31:25.097Z,7.72
2022-10-25T03:32:28.501Z,7.32
2022-10-25T03:34:33.900Z,6.93
2022-10-25T03:35:36.322Z,5.97
2022-10-25T03:36:38.748Z,5.75
2022-10-25T03:37:42.781Z,5.90
2022-10-25T03:38:45.324Z,7.25
2022-10-25T03:39:50.767Z,9.30
2022-10-25T03:40:53.832Z,4.85
2022-10-25T03:41:56.363Z,9.10
2022-10-25T03:42:58.893Z,8.30
2022-10-25T03:44:01.403Z,5.00
2022-10-25T03:45:04.320Z,5.68
2022-10-25T03:46:06.697Z,8.45
2022-10-25T03:47:09.014Z,3.28
2022-10-25T03:48:11.463Z,4.85
2022-10-25T03:49:13.939Z,5.22
2022-10-25T03:50:16.414Z,4.88
2022-10-25T03:51:18.996Z,5.18
2022-10-25T03:52:21.359Z,4.45
2022-10-25T03:53:23.697Z,6.43
2022-10-25T03:54:29.081Z,3.75
2022-10-25T03:55:32.987Z,5.47
2022-10-25T03:56:35.328Z,4.10
2022-10-25T03:57:37.749Z,2.83
2022-10-25T03:58:40.177Z,4.18
2022-10-25T03:59:44.380Z,3.88
2022-10-25T04:00:47.521Z,2.75
2022-10-25T04:01:50.050Z,3.38
2022-10-25T04:03:03.061Z,6.07
2022-10-25T04:04:05.638Z,3.92
2022-10-25T04:05:08.462Z,5.53
2022-10-25T04:06:11.756Z,8.10
2022-10-25T04:07:14.080Z,3.15
2022-10-25T04:08:16.439Z,62.45
2022-10-25T04:09:19.088Z,297.30
2022-10-25T04:10:21.665Z,355.13
2022-10-25T04:11:24.077Z,391.23
2022-10-25T04:12:26.509Z,249.57
2022-10-25T04:13:28.908Z,344.45
2022-10-25T04:14:31.288Z,180.40
2022-10-25T04:15:33.641Z,163.57
2022-10-25T04:16:35.948Z,112.93
2022-10-25T04:17:38.295Z,83.70
2022-10-25T04:18:40.729Z,68.30
2022-10-25T04:19:43.251Z,49.40
2022-10-25T04:20:45.603Z,45.47
2022-10-25T04:21:47.935Z,37.08
2022-10-25T04:22:56.986Z,34.72
2022-10-25T04:24:01.938Z,33.72
2022-10-25T04:25:07.036Z,30.10
2022-10-25T04:26:09.443Z,28.80
2022-10-25T04:27:11.889Z,28.63
2022-10-25T04:28:17.952Z,29.75
2022-10-25T04:29:21.332Z,34.78
2022-10-25T04:30:23.760Z,38.35
2022-10-25T04:31:26.314Z,27.02
2022-10-25T04:32:28.691Z,23.15
2022-10-25T04:33:31.089Z,22.55
2022-10-25T04:34:33.572Z,17.50
2022-10-25T04:35:35.923Z,14.27
2022-10-25T04:36:39.740Z,15.32
2022-10-25T04:37:42.173Z,17.08
2022-10-25T04:38:47.184Z,14.18
2022-10-25T04:39:49.508Z,16.33
2022-10-25T04:41:00.901Z,12.88
2022-10-25T04:43:05.818Z,13.20
2022-10-25T04:44:08.757Z,9.13
2022-10-25T04:45:11.307Z,10.05
2022-10-25T04:46:15.070Z,8.93
2022-10-25T04:47:17.562Z,7.72
2022-10-25T04:48:24.618Z,13.70
2022-10-25T04:49:27.030Z,12.15
2022-10-25T04:50:32.040Z,10.77
2022-10-25T04:51:35.878Z,34.42
2022-10-25T04:52:39.717Z,53.72
2022-10-25T04:53:43.482Z,45.50
2022-10-25T04:54:48.178Z,29.73
2022-10-25T04:56:04.883Z,51.13
2022-10-25T04:57:08.000Z,76.97
2022-10-25T04:58:10.662Z,41.55
2022-10-25T04:59:16.188Z,30.67
2022-10-25T05:00:20.969Z,18.20
2022-10-25T05:01:28.400Z,47.53
2022-10-25T05:02:35.119Z,132.13
2022-10-25T05:03:38.109Z,89.25
2022-10-25T05:04:43.683Z,50.03
2022-10-25T05:05:46.475Z,34.42
2022-10-25T05:06:50.727Z,30.40
2022-10-25T05:07:53.667Z,23.48
2022-10-25T05:08:56.039Z,21.70
2022-10-25T05:09:58.573Z,14.68
2022-10-25T05:11:01.009Z,16.50
2022-10-25T05:12:03.773Z,12.60
2022-10-25T05:13:06.493Z,12.85
2022-10-25T05:14:09.026Z,17.60
2022-10-25T05:15:11.840Z,17.35
2022-10-25T05:16:23.349Z,19.95
2022-10-25T05:17:30.578Z,21.98
2022-10-25T05:18:34.212Z,20.95
2022-10-25T05:19:37.037Z,21.50
2022-10-25T05:20:39.753Z,21.10
2022-10-25T05:21:42.333Z,22.70
2022-10-25T05:22:45.405Z,23.55
2022-10-25T05:23:48.177Z,28.90
2022-10-25T05:24:50.707Z,24.55
2022-10-25T05:26:04.149Z,25.70
2022-10-25T05:27:08.692Z,22.08
2022-10-25T05:28:11.110Z,21.80
2022-10-25T05:29:17.147Z,25.98
2022-10-25T05:30:19.622Z,20.50
2022-10-25T05:31:30.309Z,21.73
2022-10-25T05:32:36.363Z,20.23
2022-10-25T05:33:38.882Z,23.77
2022-10-25T05:34:41.473Z,20.55
2022-10-25T05:35:44.361Z,22.80
2022-10-25T05:36:46.869Z,19.85
2022-10-25T05:37:50.450Z,18.30
2022-10-25T05:38:52.855Z,21.60
2022-10-25T05:39:55.503Z,19.77
2022-10-25T05:41:06.186Z,21.33
2022-10-25T05:42:08.550Z,18.00
2022-10-25T05:43:11.236Z,22.02
2022-10-25T05:44:14.982Z,23.80
2022-10-25T05:45:17.440Z,19.92
2022-10-25T05:46:22.024Z,20.58
2022-10-25T05:47:24.389Z,18.25
2022-10-25T05:48:26.718Z,20.00
2022-10-25T05:49:29.032Z,20.50
2022-10-25T05:50:31.417Z,21.17
2022-10-25T05:51:36.198Z,18.75
2022-10-25T05:52:48.138Z,21.05
2022-10-25T05:53:58.582Z,19.88
2022-10-25T05:55:01.028Z,19.08
2022-10-25T05:56:04.059Z,19.45
2022-10-25T05:57:06.401Z,21.13
2022-10-25T05:58:09.342Z,19.60
2022-10-25T05:59:13.576Z,17.33
2022-10-25T06:00:16.375Z,20.73
2022-10-25T06:01:21.589Z,22.15
2022-10-25T06:02:24.635Z,19.50
2022-10-25T06:03:29.296Z,21.48
2022-10-25T06:04:31.900Z,20.52
2022-10-25T06:05:34.409Z,18.38
2022-10-25T06:06:38.817Z,21.33
2022-10-25T06:07:43.932Z,21.23
2022-10-25T06:08:46.958Z,21.55
2022-10-25T06:09:49.880Z,21.83
2022-10-25T06:10:52.453Z,15.63
2022-10-25T06:11:54.796Z,19.08
2022-10-25T06:12:57.138Z,21.23
2022-10-25T06:13:59.943Z,10.52
2022-10-25T06:15:02.503Z,14.38
2022-10-25T06:16:06.457Z,17.77
2022-10-25T06:17:08.774Z,14.15
2022-10-25T06:18:11.229Z,13.05
2022-10-25T06:19:13.518Z,10.73
2022-10-25T06:20:15.944Z,11.13
2022-10-25T06:21:21.128Z,7.95
2022-10-25T06:22:26.771Z,15.35
2022-10-25T06:23:31.441Z,14.85
2022-10-25T06:24:33.744Z,20.33
2022-10-25T06:25:36.076Z,16.02
2022-10-25T06:26:38.687Z,14.23
2022-10-25T06:27:41.274Z,13.35
2022-10-25T06:28:43.948Z,17.83
2022-10-25T06:29:46.406Z,15.27
2022-10-25T06:30:49.218Z,13.57
2022-10-25T06:31:54.064Z,12.90
2022-10-25T06:32:56.389Z,14.23
2022-10-25T06:34:00.697Z,15.20
2022-10-25T06:35:03.346Z,19.33
2022-10-25T06:36:10.528Z,14.85
2022-10-25T06:37:12.832Z,13.95
2022-10-25T06:38:15.150Z,16.00
2022-10-25T06:39:17.585Z,15.27
2022-10-25T06:40:19.908Z,14.32
2022-10-25T06:41:27.970Z,13.60
2022-10-25T06:42:30.476Z,13.88
2022-10-25T06:43:36.600Z,17.15
2022-10-25T06:44:43.298Z,17.63
2022-10-25T06:45:45.626Z,16.67
2022-10-25T06:48:12.483Z,14.55
2022-10-25T06:49:14.833Z,14.55
2022-10-25T06:50:18.134Z,15.15
2022-10-25T06:51:23.574Z,16.73
2022-10-25T06:52:27.584Z,13.93
2022-10-25T06:53:30.276Z,17.33
2022-10-25T06:54:32.763Z,13.20
2022-10-25T06:55:38.135Z,12.63
2022-10-25T06:56:40.805Z,16.67
2022-10-25T06:57:43.133Z,12.93
2022-10-25T06:58:46.634Z,14.70
2022-10-25T06:59:49.244Z,11.77
2022-10-25T07:00:51.759Z,17.13
2022-10-25T07:01:55.647Z,22.75
2022-10-25T07:03:00.011Z,122.78
2022-10-25T07:04:03.283Z,138.57
2022-10-25T07:05:06.313Z,61.15
2022-10-25T07:06:19.595Z,70.22
2022-10-25T07:07:22.563Z,59.45
2022-10-25T07:08:25.120Z,54.05
2022-10-25T07:09:31.150Z,54.33
2022-10-25T07:10:34.788Z,46.25
2022-10-25T07:11:38.023Z,46.42
2022-10-25T07:12:41.593Z,43.55
2022-10-25T07:13:44.537Z,52.30
2022-10-25T07:14:47.187Z,41.80
2022-10-25T07:15:49.936Z,42.38
2022-10-25T07:16:52.608Z,38.47
2022-10-25T07:17:58.688Z,24.20
2022-10-25T07:19:04.428Z,405.98
2022-10-25T07:20:08.082Z,119.13
2022-10-25T07:21:14.391Z,80.50
2022-10-25T07:22:17.390Z,81.80
2022-10-25T07:23:19.981Z,59.40
2022-10-25T07:24:22.805Z,53.22
2022-10-25T07:25:25.258Z,43.22
2022-10-25T07:26:33.136Z,39.72
2022-10-25T07:27:36.034Z,32.88
2022-10-25T07:28:38.743Z,30.30
2022-10-25T07:29:41.944Z,27.23
2022-10-25T07:30:49.292Z,26.17
2022-10-25T07:31:51.890Z,23.92
2022-10-25T07:32:56.707Z,18.17
2022-10-25T07:34:01.199Z,16.83
2022-10-25T07:35:03.890Z,17.73
2022-10-25T07:36:11.078Z,14.02
2022-10-25T07:37:14.587Z,16.35
2022-10-25T07:38:17.525Z,13.57
2022-10-25T07:39:20.136Z,16.42
2022-10-25T07:40:22.738Z,13.75
2022-10-25T07:41:25.741Z,14.15
2022-10-25T07:42:28.053Z,17.30
2022-10-25T07:43:30.954Z,12.55
2022-10-25T07:44:33.322Z,12.30
2022-10-25T07:45:37.947Z,11.23
2022-10-25T07:46:42.763Z,11.98
2022-10-25T07:47:45.417Z,11.35
2022-10-25T07:48:55.422Z,15.57
2022-10-25T07:49:57.891Z,15.23
2022-10-25T07:51:11.306Z,14.45
2022-10-25T07:52:13.922Z,11.18
2022-10-25T07:53:16.575Z,14.10
2022-10-25T07:54:19.003Z,11.10
2022-10-25T07:55:21.296Z,13.93
2022-10-25T07:56:24.047Z,15.95
2022-10-25T07:57:26.394Z,12.35
2022-10-25T07:58:28.992Z,9.55
2022-10-25T07:59:31.421Z,11.70
2022-10-25T08:00:35.828Z,12.05
2022-10-25T08:01:38.603Z,10.25
2022-10-25T08:02:43.003Z,10.00
2022-10-25T08:03:45.523Z,10.35
2022-10-25T08:04:50.034Z,15.93
2022-10-25T08:05:54.698Z,12.68
2022-10-25T08:07:00.704Z,9.30
2022-10-25T08:08:05.300Z,11.48
2022-10-25T08:09:14.488Z,11.07
2022-10-25T08:10:23.286Z,15.90
2022-10-25T08:11:25.574Z,7.55
2022-10-25T08:12:27.974Z,10.88
2022-10-25T08:13:30.626Z,9.23
2022-10-25T08:14:35.091Z,9.73
2022-10-25T08:15:43.429Z,7.90
2022-10-25T08:16:49.100Z,12.07
2022-10-25T08:18:01.766Z,9.75
2022-10-25T08:19:04.212Z,7.30
2022-10-25T08:20:06.711Z,13.05
2022-10-25T08:21:09.365Z,10.95
2022-10-25T08:22:14.680Z,8.45
2022-10-25T08:23:17.439Z,8.63
2022-10-25T08:25:28.403Z,6.47
2022-10-25T08:26:36.586Z,6.40
2022-10-25T08:27:45.081Z,6.25
2022-10-25T08:28:52.306Z,8.50
2022-10-25T08:29:55.512Z,6.82
2022-10-25T08:30:58.085Z,10.85
2022-10-25T08:32:00.811Z,6.70
2022-10-25T08:33:03.231Z,13.05
2022-10-25T08:34:05.642Z,9.18
2022-10-25T08:35:10.466Z,8.90
2022-10-25T08:36:13.138Z,12.18
2022-10-25T08:37:15.562Z,8.05
2022-10-25T08:38:17.988Z,10.93
2022-10-25T08:39:20.292Z,15.10
2022-10-25T08:40:34.990Z,9.48
2022-10-25T08:41:59.735Z,11.48
2022-10-25T08:43:25.805Z,14.93
2022-10-25T08:45:01.990Z,11.75
2022-10-25T08:46:13.904Z,14.05
2022-10-25T08:47:23.411Z,9.98
2022-10-25T08:48:34.465Z,11.18
2022-10-25T08:49:54.620Z,15.98
2022-10-25T08:51:02.965Z,14.93
2022-10-25T08:52:17.419Z,12.73
2022-10-25T08:53:24.961Z,11.05
2022-10-25T08:54:32.155Z,11.75
2022-10-25T08:55:44.661Z,11.88
2022-10-25T08:57:24.948Z,13.57
2022-10-25T08:58:32.253Z,11.63
2022-10-25T08:59:39.730Z,9.27
2022-10-25T09:00:44.110Z,12.50
2022-10-25T09:01:57.537Z,14.82
2022-10-25T09:03:01.226Z,12.75
2022-10-25T09:04:03.707Z,13.70
2022-10-25T09:05:19.586Z,18.23
2022-10-25T09:06:54.607Z,13.80
2022-10-25T09:08:25.621Z,13.38
2022-10-25T09:09:41.780Z,12.23
2022-10-25T09:10:49.156Z,12.40
2022-10-25T09:12:12.407Z,22.70
2022-10-25T09:13:31.513Z,30.58
2022-10-25T09:14:42.475Z,51.85
2022-10-25T09:16:13.672Z,77.85
2022-10-25T09:17:20.067Z,57.53
2022-10-25T09:18:31.296Z,35.28
2022-10-25T09:20:49.898Z,32.95
2022-10-25T09:22:05.379Z,26.33
2022-10-25T09:23:30.971Z,33.05
2022-10-25T09:24:35.421Z,19.88
2022-10-25T09:25:50.574Z,19.05
2022-10-25T09:27:07.030Z,21.88
2022-10-25T09:28:36.053Z,32.55
2022-10-25T09:29:46.421Z,23.13
2022-10-25T09:30:54.285Z,20.48
2022-10-25T09:32:00.321Z,21.55
2022-10-25T09:33:12.319Z,19.98
2022-10-25T09:34:19.154Z,21.27
2022-10-25T09:35:27.622Z,15.68
2022-10-25T09:36:38.989Z,19.30
2022-10-25T09:38:12.227Z,20.10
2022-10-25T09:39:23.455Z,14.00
2022-10-25T09:40:30.005Z,16.27
2022-10-25T09:41:42.300Z,14.60
2022-10-25T09:43:14.448Z,15.18
2022-10-25T09:44:31.998Z,18.50
2022-10-25T09:45:57.470Z,15.55
2022-10-25T09:47:12.951Z,17.88
2022-10-25T09:48:28.184Z,21.05
2022-10-25T09:50:02.419Z,15.43
2022-10-25T09:51:33.829Z,15.35
2022-10-25T09:53:01.297Z,12.88
2022-10-25T09:54:33.709Z,13.20
2022-10-25T09:55:39.607Z,41.35
2022-10-25T09:56:42.065Z,49.05
2022-10-25T09:57:46.591Z,81.07
2022-10-25T09:58:53.564Z,68.72
2022-10-25T09:59:58.748Z,72.15
2022-10-25T10:01:05.575Z,52.30
2022-10-25T10:02:15.311Z,34.15
2022-10-25T10:03:22.336Z,28.73
2022-10-25T10:04:39.457Z,28.23
2022-10-25T10:05:50.398Z,22.48
2022-10-25T10:06:57.786Z,27.27
2022-10-25T10:08:00.416Z,23.30
2022-10-25T10:09:09.306Z,23.38
2022-10-25T10:10:17.437Z,22.30
2022-10-25T10:11:24.488Z,22.05
2022-10-25T10:12:45.335Z,22.20
2022-10-25T10:14:11.719Z,22.48
2022-10-25T10:15:24.966Z,19.25
2022-10-25T10:16:36.321Z,24.45
2022-10-25T10:17:39.010Z,22.52
2022-10-25T10:18:43.632Z,22.20
2022-10-25T10:20:08.245Z,22.98
2022-10-25T10:21:11.739Z,18.92
2022-10-25T10:22:15.838Z,29.67
2022-10-25T10:23:20.938Z,22.33
2022-10-25T10:24:28.320Z,20.58
2022-10-25T10:25:31.078Z,18.23
2022-10-25T10:26:49.093Z,22.75
2022-10-25T10:27:54.482Z,26.27
2022-10-25T10:29:17.892Z,46.45
2022-10-25T10:30:29.772Z,19.25
2022-10-25T10:31:44.049Z,19.45
2022-10-25T10:32:49.097Z,14.27
2022-10-25T10:33:57.190Z,13.20
2022-10-25T10:35:02.067Z,8.25
2022-10-25T10:36:31.298Z,10.15
2022-10-25T10:37:34.427Z,10.05
2022-10-25T10:38:39.852Z,10.23
2022-10-25T10:39:54.283Z,8.73
2022-10-25T10:41:20.321Z,9.25
2022-10-25T10:42:32.904Z,7.28
2022-10-25T10:43:35.298Z,8.52
2022-10-25T10:44:37.621Z,12.18
2022-10-25T10:45:50.084Z,11.65
2022-10-25T10:46:54.822Z,8.70
2022-10-25T10:47:58.921Z,8.00
2022-10-25T10:49:02.462Z,5.95
2022-10-25T10:50:25.667Z,12.10
2022-10-25T10:51:44.328Z,9.43
2022-10-25T10:52:56.526Z,6.65
2022-10-25T10:54:23.576Z,8.93
2022-10-25T10:55:30.203Z,7.13
2022-10-25T10:56:34.063Z,7.90
2022-10-25T10:57:37.356Z,8.18
2022-10-25T10:58:41.992Z,6.95
2022-10-25T10:59:54.289Z,48.35
2022-10-25T11:00:58.281Z,70.28
2022-10-25T11:02:20.551Z,86.40
2022-10-25T11:04:00.793Z,79.72
2022-10-25T11:05:27.203Z,73.28
2022-10-25T11:06:35.077Z,37.65
2022-10-25T11:07:42.230Z,21.85
2022-10-25T11:08:47.480Z,22.50
2022-10-25T11:09:49.796Z,17.85
2022-10-25T11:10:52.116Z,11.13
2022-10-25T11:12:07.944Z,9.82
2022-10-25T11:13:20.692Z,13.48
2022-10-25T11:14:23.127Z,7.75
2022-10-25T11:15:29.822Z,7.85
2022-10-25T11:17:06.023Z,7.70
2022-10-25T11:18:10.092Z,17.98
2022-10-25T11:19:28.150Z,12.30
2022-10-25T11:20:47.786Z,8.32
2022-10-25T11:22:08.070Z,9.93
2022-10-25T11:23:28.971Z,11.13
2022-10-25T11:24:53.565Z,13.27
2022-10-25T11:26:04.509Z,9.88
2022-10-25T11:27:24.643Z,11.75
2022-10-25T11:29:00.855Z,8.07
2022-10-25T11:30:31.586Z,74.90
2022-10-25T11:32:02.438Z,95.85
2022-10-25T11:33:15.923Z,63.65
2022-10-25T11:34:32.814Z,62.88
2022-10-25T11:36:06.798Z,34.55
2022-10-25T11:37:21.260Z,23.00
2022-10-25T11:38:53.133Z,16.02
2022-10-25T11:41:24.569Z,21.00
2022-10-25T11:42:36.142Z,12.32
2022-10-25T11:43:49.913Z,11.48
2022-10-25T11:45:48.313Z,10.32
2022-10-25T11:46:58.518Z,11.63
2022-10-25T11:48:29.700Z,18.80
2022-10-25T11:49:36.048Z,26.98
2022-10-25T11:50:57.127Z,71.25
2022-10-25T11:52:37.019Z,36.47
2022-10-25T11:54:00.271Z,50.92
2022-10-25T11:55:02.630Z,29.25
2022-10-25T11:56:32.692Z,34.67
2022-10-25T11:58:22.416Z,27.50
2022-10-25T11:59:53.206Z,20.63
2022-10-25T12:01:17.139Z,13.90
2022-10-25T12:02:42.717Z,15.20
2022-10-25T12:04:04.181Z,23.25
2022-10-25T12:05:21.630Z,14.23
2022-10-25T12:06:32.466Z,10.57
2022-10-25T12:07:47.052Z,13.48
2022-10-25T12:09:02.116Z,7.65
2022-10-25T12:10:07.559Z,9.93
2022-10-25T12:11:26.278Z,7.72
2022-10-25T12:12:56.840Z,6.00
2022-10-25T12:14:03.835Z,7.55
2022-10-25T12:15:10.874Z,14.50
2022-10-25T12:16:16.097Z,10.73
2022-10-25T12:17:29.322Z,7.85
2022-10-25T12:18:38.029Z,6.68
2022-10-25T12:19:46.769Z,11.52
2022-10-25T12:20:49.840Z,15.02
2022-10-25T12:22:01.665Z,9.77
2022-10-25T12:23:12.878Z,5.35
2022-10-25T12:24:21.923Z,10.63
2022-10-25T12:25:35.443Z,4.82
2022-10-25T12:26:40.783Z,9.50
2022-10-25T12:27:45.931Z,5.88
2022-10-25T12:28:49.808Z,8.88
2022-10-25T12:30:00.239Z,5.05
2022-10-25T12:31:19.477Z,5.27
2022-10-25T12:32:41.529Z,5.30
2022-10-25T12:33:47.488Z,8.32
2022-10-25T12:34:52.887Z,6.38
2022-10-25T12:36:01.736Z,9.32
2022-10-25T12:37:11.658Z,6.03
2022-10-25T12:38:38.507Z,6.47
2022-10-25T12:39:51.665Z,5.15
2022-10-25T12:41:01.149Z,6.10
2022-10-25T12:42:07.603Z,4.60
2022-10-25T12:43:42.832Z,4.95
2022-10-25T12:44:59.969Z,3.88
2022-10-25T12:46:28.889Z,3.80
2022-10-25T12:47:48.715Z,8.35
2022-10-25T12:49:03.358Z,8.60
2022-10-25T12:50:22.589Z,8.52
2022-10-25T12:51:34.557Z,18.30
2022-10-25T12:52:38.453Z,27.42
2022-10-25T12:54:24.897Z,13.05
2022-10-25T12:55:54.148Z,10.20
2022-10-25T12:57:07.914Z,11.15
2022-10-25T12:58:30.070Z,8.00
2022-10-25T13:00:09.196Z,10.70
2022-10-25T13:01:38.531Z,7.30
2022-10-25T13:02:52.655Z,6.35
2022-10-25T13:04:10.962Z,6.55
2022-10-25T13:05:28.202Z,6.63
2022-10-25T13:06:35.488Z,7.45
2022-10-25T13:07:38.803Z,7.93
2022-10-25T13:08:42.009Z,10.23
2022-10-25T13:09:44.578Z,7.90
2022-10-25T13:10:56.856Z,3.67
2022-10-25T13:12:22.780Z,4.40
2022-10-25T13:13:33.644Z,4.88
2022-10-25T13:14:43.219Z,6.82
2022-10-25T13:15:50.835Z,10.07
2022-10-25T13:17:13.315Z,4.43
2022-10-25T13:18:29.088Z,4.03
2022-10-25T13:20:55.060Z,4.75
2022-10-25T13:21:57.412Z,3.50
2022-10-25T13:23:00.333Z,3.30
2022-10-25T13:24:08.349Z,5.15
2022-10-25T13:25:13.905Z,3.78
2022-10-25T13:26:18.920Z,3.60
2022-10-25T13:27:24.689Z,2.58
2022-10-25T13:28:35.252Z,2.78
2022-10-25T13:30:01.316Z,5.10
2022-10-25T13:31:30.133Z,3.28
2022-10-25T13:32:33.019Z,2.38
2022-10-25T13:33:35.442Z,2.60
2022-10-25T13:34:37.896Z,3.28
2022-10-25T13:35:40.222Z,2.33
2022-10-25T13:36:51.461Z,5.30
2022-10-25T13:38:07.639Z,4.80
2022-10-25T13:39:16.661Z,5.18
2022-10-25T13:40:30.817Z,4.35
2022-10-25T13:41:44.716Z,2.83
2022-10-25T13:42:49.325Z,2.25
2022-10-25T13:44:02.442Z,6.68
2022-10-25T13:45:04.866Z,3.97
2022-10-25T13:46:11.282Z,4.32
2022-10-25T13:47:36.813Z,4.13
2022-10-25T13:48:43.859Z,5.50
2022-10-25T13:49:48.313Z,9.00
2022-10-25T13:50:59.538Z,8.18
2022-10-25T13:52:05.543Z,6.10
2022-10-25T13:53:31.068Z,4.40
2022-10-25T13:54:53.700Z,5.20
2022-10-25T13:56:05.106Z,5.00
2022-10-25T13:57:49.915Z,6.13
2022-10-25T13:58:56.531Z,4.45
2022-10-25T14:00:01.729Z,6.55
2022-10-25T14:01:16.482Z,6.30
2022-10-25T14:02:21.691Z,7.13
2022-10-25T14:03:34.970Z,6.53
2022-10-25T14:04:38.547Z,6.68
2022-10-25T14:05:56.012Z,5.00
2022-10-25T14:07:36.677Z,3.97
2022-10-25T14:08:58.272Z,4.32
2022-10-25T14:11:23.310Z,5.60
2022-10-25T14:12:27.510Z,7.78
2022-10-25T14:13:57.398Z,6.45
2022-10-25T14:15:08.597Z,6.55
2022-10-25T14:16:23.987Z,5.65
2022-10-25T14:17:43.856Z,5.70
2022-10-25T14:18:46.670Z,10.15
2022-10-25T14:19:52.725Z,6.40
2022-10-25T14:21:05.407Z,5.82
2022-10-25T14:22:40.089Z,4.75
2022-10-25T14:23:42.770Z,2.08
2022-10-25T14:24:48.761Z,13.93
2022-10-25T14:25:55.959Z,36.63
2022-10-25T14:27:01.087Z,33.90
2022-10-25T14:28:28.061Z,33.00
2022-10-25T14:29:30.535Z,25.38
2022-10-25T14:30:41.343Z,14.60
2022-10-25T14:31:43.721Z,9.98
2022-10-25T14:32:57.913Z,12.70
2022-10-25T14:34:00.858Z,6.28
2022-10-25T14:35:06.113Z,3.53
2022-10-25T14:36:30.627Z,8.05
2022-10-25T14:37:39.898Z,10.65
2022-10-25T14:39:03.287Z,8.57
2022-10-25T14:40:17.183Z,4.22
2022-10-25T14:41:25.132Z,4.88
2022-10-25T14:42:27.583Z,6.40
2022-10-25T14:43:35.663Z,4.80
2022-10-25T14:44:50.303Z,5.47
2022-10-25T14:46:05.414Z,5.25
2022-10-25T14:47:27.906Z,4.30
2022-10-25T14:48:30.513Z,6.00
2022-10-25T14:49:32.897Z,5.88
2022-10-25T14:50:35.540Z,4.55
2022-10-25T14:51:42.404Z,5.10
2022-10-25T14:52:49.733Z,2.53
2022-10-25T14:53:54.302Z,6.18
2022-10-25T14:55:02.677Z,2.55
2022-10-25T14:56:05.817Z,4.00
2022-10-25T14:57:11.314Z,3.50
2022-10-25T14:58:13.998Z,3.45
2022-10-25T14:59:42.750Z,4.32
2022-10-25T15:00:59.890Z,4.20
2022-10-25T15:02:06.189Z,4.25
2022-10-25T15:03:11.337Z,2.88
2022-10-25T15:04:16.902Z,4.78
2022-10-25T15:05:22.012Z,6.40
2022-10-25T15:06:28.155Z,2.45
2022-10-25T15:07:38.509Z,2.38
2022-10-25T15:08:42.264Z,4.17
2022-10-25T15:09:52.632Z,2.85